Flight Track Log - Related Links

Times and Time Zones

All times are in EDT time to prevent confusion due to time zone crossing. See the SCX342 flight status page for this flight to view local times or setup timezone preferences in your user account.

Time Position Orientation Groundspeed Altitude Reporting Facility
EDT Latitude Longitude Course Direction KTS MPH feet Rate Location/Type
Sat 12:05:48 PM 28.4167 -81.3000 213° Southwest 152 175 600  Level Orlando TRACON
Sat 12:07:12 PM 28.3500 -81.3500 213° Southwest 233 268 3,800 2,769 Climbing Orlando TRACON
Sat 12:09:03 PM 28.3594 -81.4961 274° West 280 322 9,600 2,632 Climbing Jacksonville Center
Sat 12:10:03 PM 28.3792 -81.5903 283° West 293 337 11,300 2,150 Climbing Jacksonville Center
Sat 12:11:03 PM 28.4011 -81.7008 283° West 329 379 13,900 2,600 Climbing Jacksonville Center
Sat 12:12:03 PM 28.4458 -81.8089 295° West 360 414 16,500 2,500 Climbing Jacksonville Center
Sat 12:13:03 PM 28.4844 -81.9219 291° West 377 434 18,900 2,200 Climbing Jacksonville Center
Sat 12:14:03 PM 28.5456 -82.0275 303° West 382 440 20,900 2,067 Climbing Jacksonville Center
Sat 12:15:02 PM 28.6339 -82.1097 321° Northwest 399 459 23,000 2,000 Climbing Jacksonville Center
Sat 12:16:03 PM 28.7261 -82.1989 320° Northwest 412 474 24,900 1,835 Climbing Jacksonville Center
Sat 12:17:03 PM 28.8206 -82.2883 320° Northwest 430 495 26,700 1,600 Climbing Jacksonville Center
Sat 12:18:03 PM 28.9022 -82.3683 319° Northwest 442 509 28,100 1,450 Climbing Jacksonville Center
Sat 12:19:03 PM 29.0008 -82.4653 319° Northwest 442 509 29,600 958 Climbing Jacksonville Center
Sat 12:20:02 PM 29.0969 -82.5575 320° Northwest 448 516 30,000 200 Climbing Jacksonville Center
Sat 12:21:03 PM 29.1933 -82.6522 319° Northwest 453 521 30,000 1,041 Level Jacksonville Center
Sat 12:22:03 PM 29.2894 -82.7450 320° Northwest 453 521 32,100 1,916 Climbing Jacksonville Center
Sat 12:23:02 PM 29.3772 -82.8331 319° Northwest 446 513 33,800 1,400 Climbing Jacksonville Center
Sat 12:24:03 PM 29.4711 -82.9236 320° Northwest 441 507 34,900 1,339 Climbing Jacksonville Center
Sat 12:25:03 PM 29.5900 -83.0119 327° Northwest 450 518 36,500 1,462 Climbing Jacksonville Center
Sat 12:26:02 PM 29.6964 -83.0767 332° Northwest 449 517 37,800 700 Climbing Jacksonville Center
Sat 12:27:03 PM 29.8069 -83.1414 333° Northwest 444 511 37,900 100 Climbing Jacksonville Center
Sat 12:28:02 PM 29.9111 -83.2064 332° Northwest 438 504 38,000 50 Climbing Jacksonville Center
Sat 12:29:03 PM 30.0197 -83.2717 333° Northwest 433 498 38,000  Level Jacksonville Center
Sat 12:30:03 PM 30.1281 -83.3344 333° Northwest 433 498 38,000  Level Jacksonville Center
Sat 12:31:03 PM 30.2342 -83.4000 332° Northwest 433 498 38,000 -50 Level Jacksonville Center
Sat 12:32:03 PM 30.3403 -83.4653 332° Northwest 433 498 37,900 -50 Descending Jacksonville Center
Sat 12:33:03 PM 30.4444 -83.5286 332° Northwest 428 493 37,900 50 Level Jacksonville Center
Sat 12:34:02 PM 30.5506 -83.5944 332° Northwest 428 493 38,000 50 Climbing Jacksonville Center
Sat 12:35:03 PM 30.6506 -83.6581 331° Northwest 423 487 38,000  Level Jacksonville Center
Sat 12:36:02 PM 30.7544 -83.7242 331° Northwest 418 481 38,000  Level Jacksonville Center
Sat 12:37:03 PM 30.8481 -83.7783 334° Northwest 418 481 38,000  Level Jacksonville Center
Sat 12:38:03 PM 30.9500 -83.8444 331° Northwest 418 481 38,000  Level Jacksonville Center
Sat 12:39:03 PM 31.0539 -83.9086 332° Northwest 411 473 38,000  Level Jacksonville Center
Sat 12:40:03 PM 31.1578 -83.9728 332° Northwest 411 473 38,000  Level Jacksonville Center
Sat 12:42:31 PM 31.4231 -84.1411 332° Northwest 414 476 38,000  Level Atlanta Center
Sat 12:43:31 PM 31.5253 -84.2069 331° Northwest 414 476 38,000  Level Atlanta Center
Sat 12:44:31 PM 31.6294 -84.2731 332° Northwest 414 476 38,000  Level Atlanta Center
Sat 12:45:31 PM 31.7336 -84.3392 332° Northwest 414 476 38,000  Level Atlanta Center
Sat 12:46:31 PM 31.8192 -84.3908 333° Northwest 414 476 38,000  Level Atlanta Center
Sat 12:47:31 PM 31.9294 -84.4597 332° Northwest 414 476 38,000  Level Atlanta Center
Sat 12:48:31 PM 32.0336 -84.5289 331° Northwest 414 476 38,000  Level Atlanta Center
Sat 12:49:31 PM 32.1378 -84.5908 333° Northwest 414 476 38,000  Level Atlanta Center
Sat 12:50:31 PM 32.2356 -84.6575 330° Northwest 414 476 38,000  Level Atlanta Center
Sat 12:51:31 PM 32.3397 -84.7222 332° Northwest 414 476 38,000  Level Atlanta Center
Sat 12:52:31 PM 32.4394 -84.7894 330° Northwest 414 476 38,000  Level Atlanta Center
Sat 12:53:31 PM 32.5497 -84.8544 334° Northwest 414 476 38,000  Level Atlanta Center
Sat 12:54:31 PM 32.6536 -84.9194 332° Northwest 408 470 38,000  Level Atlanta Center
Sat 12:56:00 PM 32.8008 -85.0107 332° Northwest  Level FlightAware Approximate
Sat 12:59:31 PM 33.1558 -85.2572 331° Northwest 420 483 38,000  Level Atlanta Center
Sat 01:01:00 PM 33.3058 -85.3423 335° Northwest  Level Estimated
Sat 01:03:00 PM 33.4931 -85.4488 331° Northwest  Level FlightAware Approximate
Sat 01:04:00 PM 33.5913 -85.5132 331° Northwest  Level FlightAware Approximate
Sat 01:05:00 PM 33.6894 -85.5778 331° Northwest  Level FlightAware Approximate
Sat 01:08:00 PM 34.0126 -85.7480 335° Northwest  Level Estimated
Sat 01:09:00 PM 34.1134 -85.8065 334° Northwest  Level Estimated
Sat 01:10:00 PM 34.2143 -85.8652 334° Northwest  Level Estimated
Sat 01:11:00 PM 34.3151 -85.9240 334° Northwest  Level Estimated
Sat 01:11:31 PM 34.3333 -86.0361 334° Northwest 397 457 38,000  Level Atlanta Center
Sat 01:12:00 PM 34.4159 -85.9829 334° Northwest  Level Estimated
Sat 01:13:00 PM 34.5166 -86.0420 334° Northwest  Level Estimated
Sat 01:14:00 PM 34.6174 -86.1012 334° Northwest  Level Estimated
Sat 01:15:00 PM 34.7180 -86.1606 334° Northwest  Level Estimated
Sat 01:15:31 PM 34.7292 -86.3058 331° Northwest 402 463 38,000  Level Atlanta Center
Sat 01:16:00 PM 34.8187 -86.2201 334° Northwest  Level Estimated
Sat 01:16:43 PM 34.8478 -86.3894 330° Northwest 409 471 38,000  Level Memphis Center
Sat 01:17:00 PM 34.9193 -86.2797 334° Northwest  Level Estimated
Sat 01:17:43 PM 34.9503 -86.4581 331° Northwest 409 471 38,000  Level Memphis Center
Sat 01:18:00 PM 35.0200 -86.3395 334° Northwest  Level Estimated
Sat 01:18:43 PM 35.0461 -86.5272 329° Northwest 409 471 38,000  Level Memphis Center
Sat 01:19:00 PM 35.1205 -86.3994 334° Northwest  Level Estimated
Sat 01:19:43 PM 35.1444 -86.5989 329° Northwest 409 471 38,000  Level Memphis Center
Sat 01:20:00 PM 35.2211 -86.4595 334° Northwest  Level Estimated
Sat 01:20:43 PM 35.2339 -86.6583 332° Northwest 409 471 38,000  Level Memphis Center
Sat 01:21:43 PM 35.3339 -86.7303 330° Northwest 409 471 38,000  Level Memphis Center
Sat 01:22:43 PM 35.4339 -86.7972 331° Northwest 409 471 38,000  Level Memphis Center
Sat 01:23:43 PM 35.5319 -86.8694 329° Northwest 409 471 38,000  Level Memphis Center
Sat 01:24:43 PM 35.6297 -86.9394 330° Northwest 409 471 38,000  Level Memphis Center
Sat 01:25:43 PM 35.7297 -87.0094 330° Northwest 409 471 38,000  Level Memphis Center
Sat 01:26:43 PM 35.8361 -87.0872 329° Northwest 409 471 38,000  Level Memphis Center
Sat 01:27:43 PM 35.9381 -87.1575 331° Northwest 414 476 38,000  Level Memphis Center
Sat 01:28:43 PM 36.0397 -87.2278 331° Northwest 414 476 38,000  Level Memphis Center
Sat 01:29:43 PM 36.1394 -87.2986 330° Northwest 414 476 38,000  Level Memphis Center
Sat 01:30:43 PM 36.2392 -87.3694 330° Northwest 409 471 38,000  Level Memphis Center
Sat 01:31:43 PM 36.3369 -87.4433 329° Northwest 409 471 38,000  Level Memphis Center
Sat 01:32:43 PM 36.4258 -87.5044 331° Northwest 409 471 38,000  Level Memphis Center
Sat 01:33:43 PM 36.5256 -87.5758 330° Northwest 409 471 38,000  Level Memphis Center
Sat 01:34:43 PM 36.6228 -87.6450 330° Northwest 409 471 38,000  Level Memphis Center
Sat 01:35:43 PM 36.7203 -87.7142 330° Northwest 409 471 38,000  Level Memphis Center
Sat 01:36:43 PM 36.8197 -87.7886 329° Northwest 409 471 38,000  Level Memphis Center
Sat 01:37:43 PM 36.9278 -87.8681 330° Northwest 409 471 38,000  Level Memphis Center
Sat 01:38:43 PM 37.0269 -87.9403 330° Northwest 409 471 38,000  Level Memphis Center
Sat 01:39:43 PM 37.1264 -88.0128 330° Northwest 414 476 38,000  Level Memphis Center
Sat 01:40:43 PM 37.2278 -88.0853 330° Northwest 414 476 38,000  Level Memphis Center
Sat 01:41:43 PM 37.3164 -88.1533 329° Northwest 414 476 38,000  Level Memphis Center
Sat 01:43:32 PM 37.4944 -88.2847 330° Northwest 412 474 38,000  Level Kansas City Center
Sat 01:44:34 PM 37.5883 -88.3539 330° Northwest 412 474 38,000  Level Kansas City Center
Sat 01:45:36 PM 37.7081 -88.4436 329° Northwest 413 475 38,000  Level Kansas City Center
Sat 01:46:38 PM 37.8078 -88.5192 329° Northwest 414 476 38,000  Level Kansas City Center
Sat 01:47:40 PM 37.9083 -88.5950 329° Northwest 416 479 38,000  Level Kansas City Center
Sat 01:48:42 PM 38.0083 -88.6711 329° Northwest 416 479 38,000  Level Kansas City Center
Sat 01:49:44 PM 38.1156 -88.7528 329° Northwest 424 488 38,000  Level Kansas City Center
Sat 01:50:46 PM 38.2156 -88.8275 330° Northwest 421 484 38,000  Level Kansas City Center
Sat 01:51:49 PM 38.3156 -88.9036 329° Northwest 420 483 38,000  Level Kansas City Center
Sat 01:52:51 PM 38.4272 -88.9908 329° Northwest 417 480 38,000  Level Kansas City Center
Sat 01:53:53 PM 38.5350 -89.0733 329° Northwest 420 483 38,000  Level Kansas City Center
Sat 01:54:55 PM 38.6344 -89.1508 329° Northwest 420 483 38,000  Level Kansas City Center
Sat 01:55:57 PM 38.7425 -89.2339 329° Northwest 421 484 38,000  Level Kansas City Center
Sat 01:56:59 PM 38.8414 -89.3103 329° Northwest 419 482 38,000  Level Kansas City Center
Sat 01:58:01 PM 38.9461 -89.3933 328° Northwest 414 476 38,000  Level Kansas City Center
Sat 01:59:03 PM 39.0433 -89.4686 329° Northwest 410 472 38,000  Level Kansas City Center
Sat 02:00:05 PM 39.1475 -89.5514 328° Northwest 410 472 38,000  Level Kansas City Center
Sat 02:01:07 PM 39.2392 -89.6217 329° Northwest 409 471 38,000  Level Kansas City Center
Sat 02:02:09 PM 39.3347 -89.6972 329° Northwest 407 468 38,000  Level Kansas City Center
Sat 02:03:11 PM 39.4311 -89.7733 329° Northwest 408 470 38,000  Level Kansas City Center
Sat 02:04:13 PM 39.5286 -89.8519 328° Northwest 412 474 38,000  Level Kansas City Center
Sat 02:05:15 PM 39.6467 -89.9458 329° Northwest 416 479 38,000  Level Kansas City Center
Sat 02:06:17 PM 39.7333 -90.0164 328° Northwest 415 478 38,000  Level Kansas City Center
Sat 02:07:19 PM 39.8331 -90.0964 328° Northwest 417 480 38,000  Level Kansas City Center
Sat 02:08:21 PM 39.9511 -90.1919 328° Northwest 416 479 38,000  Level Kansas City Center
Sat 02:09:23 PM 40.0500 -90.2731 328° Northwest 416 479 38,000  Level Kansas City Center
Sat 02:10:25 PM 40.1497 -90.3517 329° Northwest 416 479 38,000  Level Kansas City Center
Sat 02:11:27 PM 40.2492 -90.4339 328° Northwest 419 482 38,000  Level Kansas City Center
Sat 02:12:28 PM 40.3475 -90.5136 328° Northwest 417 480 38,000  Level Kansas City Center
Sat 02:13:05 PM 40.4069 -90.5628 328° Northwest 417 480 38,000  Level Chicago Center
Sat 02:14:06 PM 40.5053 -90.6447 328° Northwest 416 479 38,000  Level Chicago Center
Sat 02:15:08 PM 40.6044 -90.7267 328° Northwest 417 480 38,000 -145 Level Chicago Center
Sat 02:16:10 PM 40.7042 -90.8089 328° Northwest 420 483 37,700 -484 Descending Chicago Center
Sat 02:17:12 PM 40.8208 -90.9069 328° Northwest 412 474 37,000 -341 Descending Chicago Center
Sat 02:18:13 PM 40.9164 -90.9853 328° Northwest 405 466 37,000  Level Chicago Center
Sat 02:19:15 PM 41.0125 -91.0656 328° Northwest 407 468 37,000 -339 Level Chicago Center
Sat 02:20:17 PM 41.1083 -91.1464 328° Northwest 408 470 36,300 -484 Descending Chicago Center
Sat 02:21:19 PM 41.2025 -91.2258 328° Northwest 401 461 36,000 -146 Descending Chicago Center
Sat 02:22:20 PM 41.2958 -91.3058 327° Northwest 399 459 36,000  Level Chicago Center
Sat 02:23:22 PM 41.3936 -91.3878 328° Northwest 401 461 36,000  Level Chicago Center
Sat 02:24:24 PM 41.4875 -91.4681 327° Northwest 403 464 36,000  Level Chicago Center
Sat 02:25:26 PM 41.5992 -91.5633 327° Northwest 400 460 36,000  Level Chicago Center
Sat 02:26:28 PM 41.6919 -91.6436 327° Northwest 400 460 36,000  Level Chicago Center
Sat 02:27:29 PM 41.7839 -91.7219 328° Northwest 395 455 36,000  Level Chicago Center
Sat 02:28:31 PM 41.8753 -91.8011 327° Northwest 394 453 36,000 -242 Level Chicago Center
Sat 02:29:33 PM 41.9672 -91.8783 328° Northwest 392 451 35,500 -677 Descending Chicago Center
Sat 02:30:35 PM 42.0600 -91.9606 327° Northwest 396 456 34,600 -1,065 Descending Chicago Center
Sat 02:31:37 PM 42.1636 -92.0514 327° Northwest 375 432 33,300 -1,113 Descending Chicago Center
Sat 02:32:39 PM 42.2469 -92.1256 327° Northwest 363 418 32,300 -629 Descending Chicago Center
Sat 02:33:41 PM 42.3253 -92.1922 328° Northwest 341 392 32,000 -146 Descending Chicago Center
Sat 02:34:42 PM 42.4031 -92.2628 326° Northwest 336 387 32,000  Level Chicago Center
Sat 02:35:44 PM 42.4814 -92.3325 327° Northwest 337 388 32,000  Level Chicago Center
Sat 02:36:46 PM 42.5606 -92.4025 327° Northwest 339 390 32,000  Level Chicago Center
Sat 02:37:48 PM 42.6364 -92.4731 326° Northwest 334 384 32,000  Level Chicago Center
Sat 02:38:50 PM 42.7289 -92.5586 326° Northwest 335 386 32,000  Level Chicago Center
Sat 02:39:52 PM 42.8064 -92.6297 326° Northwest 337 388 32,000  Level Chicago Center
Sat 02:40:54 PM 42.8858 -92.7014 327° Northwest 342 394 32,000  Level Chicago Center
Sat 02:41:35 PM 42.9322 -92.7456 325° Northwest 339 390 32,000  Level Minneapolis Center
Sat 02:42:37 PM 43.0250 -92.8311 326° Northwest 337 388 32,000 -1,168 Level Minneapolis Center
Sat 02:44:00 PM 43.1195 -92.9151 326° Northwest  Level FlightAware Approximate
Sat 02:49:48 PM 43.5939 -93.1064 North 286 329 22,400  Level Minneapolis Center
Sat 02:50:50 PM 43.6739 -93.1217 352° North 290 334 20,700 -1,610 Descending Minneapolis Center
Sat 02:51:00 PM 43.7972 -93.2603 North  Level FlightAware Approximate
Sat 02:51:51 PM 43.7567 -93.1353 353° North 297 342 19,100  Level Minneapolis Center
Sat 02:52:00 PM 43.9058 -93.2481 13° North  Level FlightAware Approximate
Sat 02:52:53 PM 43.8344 -93.1489 353° North 294 338 17,400  Level Minneapolis Center
Sat 02:53:00 PM 44.0134 -93.2263 North  Level FlightAware Approximate
Sat 02:53:55 PM 43.9083 -93.1614 353° North 274 315 16,200  Level Minneapolis Center
Sat 02:54:00 PM 44.1221 -93.2167 North  Level FlightAware Approximate
Sat 02:54:56 PM 44.0003 -93.1797 352° North 277 319 14,300  Level Minneapolis Center
Sat 02:55:00 PM 44.2312 -93.2167 North  Level FlightAware Approximate
Sat 02:55:58 PM 44.0811 -93.1939 353° North 288 331 12,800  Level Minneapolis Center
Sat 02:56:59 PM 44.1597 -93.2092 352° North 285 328 11,300 -1,366 Descending Minneapolis Center
Sat 02:58:01 PM 44.2353 -93.2183 355° North 274 315 10,000 -634 Descending Minneapolis Center
Sat 02:59:02 PM 44.3111 -93.2117 North 273 314 10,000 -425 Level Minneapolis Center
Sat 03:00:08 PM 44.4017 -93.2086 North 270 311 9,100 -984 Descending Minneapolis Center
Sat 03:01:10 PM 44.4753 -93.2050 North 266 306 7,900 -1,122 Descending Minneapolis Center
Sat 03:02:11 PM 44.5406 -93.2022 North 239 275 6,800 -1,122 Descending Minneapolis Center
Sat 03:03:13 PM 44.6014 -93.2003 North 222 255 5,600 -1,171 Descending Minneapolis Center
Sat 03:04:14 PM 44.6511 -93.1981 North 181 208 4,400 -787 Descending Minneapolis Center
Sat 03:05:15 PM 44.6978 -93.1956 North 170 196 4,000 -585 Descending Minneapolis Center
Sat 03:06:17 PM 44.7522 -93.2072 351° North 171 197 3,200 -878 Descending Minneapolis Center
Sat 03:07:18 PM 44.7972 -93.2189 350° North 173 199 2,200 -829 Descending Minneapolis Center
Sat 03:08:20 PM 44.8392 -93.2294 350° North 157 181 1,500 -677 Descending Minneapolis Center
Sat 03:10:00 PM 44.8667 -93.2167 North  Level FlightAware Approximate

Login

Don't have an account? Register now (free) for customized features, flight alerts, and more!